createdAt,value
2023-04-30T00:02:02.315Z,49.69
2023-04-30T00:07:07.186Z,49.36
2023-04-30T00:12:10.248Z,49.73
2023-04-30T00:17:12.322Z,49.58
2023-04-30T00:22:13.941Z,49.58
2023-04-30T00:27:15.635Z,49.60
2023-04-30T00:32:17.518Z,49.65
2023-04-30T00:37:19.214Z,49.44
2023-04-30T00:42:21.096Z,49.29
2023-04-30T00:47:22.898Z,49.38
2023-04-30T00:52:24.701Z,49.29
2023-04-30T00:57:26.825Z,49.45
2023-04-30T01:02:29.299Z,49.34
2023-04-30T01:07:32.147Z,49.60
2023-04-30T01:13:05.021Z,49.58
2023-04-30T01:18:18.672Z,49.45
2023-04-30T01:23:42.266Z,49.24
2023-04-30T01:28:46.656Z,49.54
2023-04-30T01:33:48.237Z,49.63
2023-04-30T01:39:14.050Z,49.76
2023-04-30T01:44:51.134Z,49.93
2023-04-30T01:50:18.893Z,49.92
2023-04-30T01:55:28.175Z,50.06
2023-04-30T02:00:30.960Z,50.12
2023-04-30T02:05:33.042Z,50.02
2023-04-30T02:10:35.015Z,50.34
2023-04-30T02:15:37.563Z,50.21
2023-04-30T02:20:39.192Z,50.57
2023-04-30T02:25:41.316Z,50.31
2023-04-30T02:30:43.111Z,50.38
2023-04-30T02:35:44.885Z,49.63
2023-04-30T02:40:46.485Z,50.24
2023-04-30T02:45:48.515Z,49.93
2023-04-30T02:50:50.328Z,50.06
2023-04-30T02:55:52.105Z,50.26
2023-04-30T03:00:54.040Z,50.04
2023-04-30T03:05:59.341Z,50.00
2023-04-30T03:11:01.486Z,50.10
2023-04-30T03:16:07.561Z,50.06
2023-04-30T03:21:09.659Z,49.87
2023-04-30T03:26:12.172Z,49.99
2023-04-30T03:31:14.130Z,49.99
2023-04-30T03:36:15.900Z,50.09
2023-04-30T03:41:19.929Z,50.28
2023-04-30T03:46:22.249Z,50.31
2023-04-30T03:51:24.390Z,50.37
2023-04-30T03:56:27.040Z,50.45
2023-04-30T04:01:29.915Z,50.36
2023-04-30T04:06:33.837Z,50.37
2023-04-30T04:11:36.669Z,50.57
2023-04-30T04:16:40.122Z,50.50
2023-04-30T04:21:42.385Z,50.87
2023-04-30T04:26:50.363Z,50.76
2023-04-30T04:31:53.440Z,51.11
2023-04-30T04:36:55.373Z,51.31
2023-04-30T04:41:58.166Z,51.34
2023-04-30T04:47:00.785Z,51.52
2023-04-30T04:52:02.725Z,51.81
2023-04-30T04:57:05.073Z,51.71
2023-04-30T05:02:07.685Z,52.03
2023-04-30T05:07:12.066Z,51.99
2023-04-30T05:12:19.050Z,52.11
2023-04-30T05:17:21.305Z,52.22
2023-04-30T05:22:23.121Z,52.30
2023-04-30T05:27:24.656Z,52.25
2023-04-30T05:32:27.757Z,51.96
2023-04-30T05:37:29.804Z,52.33
2023-04-30T05:42:32.845Z,52.19
2023-04-30T05:47:36.259Z,52.14
2023-04-30T05:52:38.748Z,52.47
2023-04-30T05:57:40.258Z,52.53
2023-04-30T06:02:41.975Z,52.31
2023-04-30T06:07:44.433Z,52.44
2023-04-30T06:12:49.508Z,52.64
2023-04-30T06:17:56.943Z,52.28
2023-04-30T06:23:03.007Z,52.47
2023-04-30T06:28:12.007Z,52.29
2023-04-30T06:33:18.959Z,52.23
2023-04-30T06:38:25.568Z,52.18
2023-04-30T06:43:31.040Z,52.17
2023-04-30T06:48:37.997Z,52.10
2023-04-30T06:53:43.182Z,51.92
2023-04-30T06:58:46.011Z,51.42
2023-04-30T07:03:50.316Z,51.90
2023-04-30T07:08:56.008Z,51.31
2023-04-30T07:13:58.673Z,50.92
2023-04-30T07:19:03.867Z,50.77
2023-04-30T07:24:10.701Z,50.71
2023-04-30T07:29:17.148Z,50.44
2023-04-30T07:34:20.958Z,50.14
2023-04-30T07:39:25.549Z,49.66
2023-04-30T07:44:32.235Z,49.52
2023-04-30T07:49:37.947Z,49.32
2023-04-30T07:54:46.220Z,49.09
2023-04-30T07:59:52.341Z,49.12
2023-04-30T08:05:19.176Z,48.65
2023-04-30T08:10:43.989Z,48.18
2023-04-30T08:16:06.770Z,47.95
2023-04-30T08:21:30.976Z,47.26
2023-04-30T08:26:56.868Z,46.56
2023-04-30T08:32:22.493Z,46.51
2023-04-30T08:37:47.029Z,46.80
2023-04-30T08:43:13.108Z,46.75
2023-04-30T08:48:37.690Z,46.34
2023-04-30T08:53:41.300Z,46.25
2023-04-30T08:58:47.523Z,45.71
2023-04-30T09:03:51.363Z,45.72
2023-04-30T09:08:55.922Z,45.67
2023-04-30T09:14:04.001Z,45.66
2023-04-30T09:19:10.344Z,45.18
2023-04-30T09:24:18.734Z,45.13
2023-04-30T09:29:37.837Z,45.01
2023-04-30T09:34:44.974Z,45.11
2023-04-30T09:39:54.623Z,44.80
2023-04-30T09:44:58.774Z,44.97
2023-04-30T09:50:00.742Z,44.84
2023-04-30T09:55:06.475Z,45.10
2023-04-30T10:00:14.712Z,44.35
2023-04-30T10:05:23.526Z,44.26
2023-04-30T10:10:32.873Z,44.17
2023-04-30T10:15:42.571Z,43.97
2023-04-30T10:20:51.196Z,43.92
2023-04-30T10:25:54.775Z,43.91
2023-04-30T10:30:57.648Z,44.25
2023-04-30T10:36:06.482Z,44.41
2023-04-30T10:41:13.133Z,44.15
2023-04-30T10:46:24.218Z,43.23
2023-04-30T10:51:44.900Z,42.79
2023-04-30T10:56:47.789Z,42.18
2023-04-30T11:02:03.122Z,41.81
2023-04-30T11:07:11.682Z,41.46
2023-04-30T11:12:31.795Z,41.80
2023-04-30T11:17:33.760Z,41.77
2023-04-30T11:22:38.579Z,41.37
2023-04-30T11:27:47.685Z,41.02
2023-04-30T11:32:50.219Z,40.96
2023-04-30T11:37:55.922Z,40.54
2023-04-30T11:42:58.883Z,40.20
2023-04-30T11:48:01.167Z,39.37
2023-04-30T11:53:05.742Z,39.09
2023-04-30T11:58:13.091Z,39.23
2023-04-30T12:03:19.780Z,39.27
2023-04-30T12:08:25.753Z,39.38
2023-04-30T12:13:31.439Z,39.65
2023-04-30T12:18:37.260Z,39.05
2023-04-30T12:23:41.407Z,37.98
2023-04-30T12:28:43.218Z,38.24
2023-04-30T12:33:54.040Z,38.10
2023-04-30T12:39:13.414Z,37.73
2023-04-30T12:44:27.844Z,37.69
2023-04-30T12:49:36.136Z,37.33
2023-04-30T12:54:38.711Z,37.71
2023-04-30T13:00:01.910Z,37.11
2023-04-30T13:05:05.465Z,36.70
2023-04-30T13:10:08.801Z,37.18
2023-04-30T13:15:11.945Z,37.11
2023-04-30T13:20:20.120Z,37.60
2023-04-30T13:25:26.285Z,37.17
2023-04-30T13:30:30.147Z,37.12
2023-04-30T13:35:31.985Z,35.86
2023-04-30T13:40:37.122Z,35.97
2023-04-30T13:45:42.952Z,35.33
2023-04-30T13:50:45.872Z,34.95
2023-04-30T13:55:47.521Z,34.93
2023-04-30T14:00:49.445Z,34.82
2023-04-30T14:05:51.517Z,34.28
2023-04-30T14:10:53.335Z,34.90
2023-04-30T14:15:56.139Z,34.52
2023-04-30T14:20:57.971Z,34.01
2023-04-30T14:25:59.862Z,34.38
2023-04-30T14:31:01.590Z,34.40
2023-04-30T14:36:04.070Z,34.35
2023-04-30T14:41:06.354Z,34.02
2023-04-30T14:46:09.579Z,33.94
2023-04-30T14:51:34.789Z,34.03
2023-04-30T14:56:40.611Z,33.39
2023-04-30T15:01:43.339Z,33.40
2023-04-30T15:06:45.160Z,33.40
2023-04-30T15:11:46.853Z,32.99
2023-04-30T15:16:48.971Z,33.03
2023-04-30T15:21:50.670Z,32.02
2023-04-30T15:26:54.445Z,32.41
2023-04-30T15:31:56.657Z,31.84
2023-04-30T15:36:59.019Z,31.84
2023-04-30T15:42:00.922Z,31.35
2023-04-30T15:47:02.622Z,30.79
2023-04-30T15:52:04.800Z,31.30
2023-04-30T15:57:09.614Z,32.15
2023-04-30T16:02:14.112Z,32.19
2023-04-30T16:07:17.239Z,32.03
2023-04-30T16:12:22.049Z,31.58
2023-04-30T16:17:25.107Z,30.82
2023-04-30T16:22:30.421Z,30.46
2023-04-30T16:27:33.630Z,30.48
2023-04-30T16:32:37.871Z,30.76
2023-04-30T16:37:39.873Z,31.71
2023-04-30T16:42:41.820Z,31.66
2023-04-30T16:47:44.731Z,31.53
2023-04-30T16:52:46.416Z,31.79
2023-04-30T16:57:48.094Z,31.05
2023-04-30T17:02:54.714Z,31.04
2023-04-30T17:07:58.235Z,31.00
2023-04-30T17:13:04.095Z,30.76
2023-04-30T17:18:10.761Z,30.66
2023-04-30T17:23:14.906Z,30.60
2023-04-30T17:28:17.126Z,30.78
2023-04-30T17:33:21.270Z,30.57
2023-04-30T17:38:25.271Z,30.55
2023-04-30T17:43:27.648Z,30.62
2023-04-30T17:48:32.880Z,30.78
2023-04-30T17:53:39.594Z,30.77
2023-04-30T17:58:47.446Z,31.04
2023-04-30T18:03:54.487Z,31.19
2023-04-30T18:09:03.192Z,31.10
2023-04-30T18:14:09.362Z,31.41
2023-04-30T18:19:17.046Z,31.19
2023-04-30T18:24:23.215Z,31.45
2023-04-30T18:29:29.916Z,31.52
2023-04-30T18:34:36.914Z,31.65
2023-04-30T18:39:41.073Z,31.66
2023-04-30T18:44:43.355Z,31.99
2023-04-30T18:49:48.663Z,31.91
2023-04-30T18:54:52.310Z,31.87
2023-04-30T18:59:57.775Z,32.25
2023-04-30T19:05:05.725Z,32.38
2023-04-30T19:10:11.718Z,32.46
2023-04-30T19:15:20.467Z,32.76
2023-04-30T19:20:26.562Z,32.97
2023-04-30T19:25:32.238Z,33.07
2023-04-30T19:30:36.584Z,33.22
2023-04-30T19:35:40.796Z,33.52
2023-04-30T19:40:47.704Z,33.73
2023-04-30T19:45:58.205Z,33.75
2023-04-30T19:51:05.406Z,34.00
2023-04-30T19:56:11.870Z,34.32
2023-04-30T20:01:20.262Z,34.06
2023-04-30T20:06:23.756Z,34.32
2023-04-30T20:11:27.922Z,34.12
2023-04-30T20:16:34.061Z,34.09
2023-04-30T20:21:37.897Z,34.47
2023-04-30T20:26:44.085Z,34.24
2023-04-30T20:31:47.781Z,34.48
2023-04-30T20:36:49.631Z,34.59
2023-04-30T20:41:54.464Z,34.66
2023-04-30T20:46:57.138Z,34.91
2023-04-30T20:52:00.401Z,34.85
2023-04-30T20:57:07.857Z,34.89
2023-04-30T21:02:12.319Z,35.10
2023-04-30T21:07:14.597Z,35.09
2023-04-30T21:12:20.603Z,35.32
2023-04-30T21:17:24.394Z,35.47
2023-04-30T21:22:26.403Z,35.60
2023-04-30T21:27:28.285Z,35.57
2023-04-30T21:32:29.933Z,35.59
2023-04-30T21:37:31.610Z,35.97
2023-04-30T21:42:33.997Z,36.03
2023-04-30T21:47:39.300Z,35.77
2023-04-30T21:52:42.760Z,36.17
2023-04-30T21:57:48.309Z,36.03
2023-04-30T22:02:53.004Z,36.41
2023-04-30T22:07:57.824Z,36.50
2023-04-30T22:13:00.446Z,36.67
2023-04-30T22:18:02.821Z,36.67
2023-04-30T22:23:05.779Z,36.85
2023-04-30T22:28:10.984Z,36.96
2023-04-30T22:33:13.993Z,37.02
2023-04-30T22:38:18.788Z,37.07
2023-04-30T22:43:23.380Z,37.18
2023-04-30T22:48:28.019Z,37.25
2023-04-30T22:53:30.671Z,37.35
2023-04-30T22:58:33.094Z,37.37
2023-04-30T23:03:35.727Z,37.78
2023-04-30T23:08:39.131Z,37.35
2023-04-30T23:13:41.188Z,37.50
2023-04-30T23:18:42.846Z,37.62
2023-04-30T23:23:44.497Z,37.94
2023-04-30T23:28:50.401Z,37.84
2023-04-30T23:33:54.959Z,37.80
2023-04-30T23:38:57.151Z,37.91
2023-04-30T23:43:58.785Z,37.97
2023-04-30T23:49:00.661Z,38.13
2023-04-30T23:54:05.261Z,38.16
2023-04-30T23:59:08.844Z,38.36
